createdAt,value
2019-04-20T00:00:21.073Z,4.40
2019-04-20T00:02:53.837Z,3.67
2019-04-20T00:05:23.201Z,3.80
2019-04-20T00:07:54.086Z,3.52
2019-04-20T00:10:25.626Z,4.05
2019-04-20T00:13:08.781Z,4.37
2019-04-20T00:15:26.689Z,4.17
2019-04-20T00:18:01.481Z,4.60
2019-04-20T00:20:32.038Z,3.60
2019-04-20T00:23:03.780Z,5.12
2019-04-20T00:26:03.838Z,4.95
2019-04-20T00:28:40.741Z,4.65
2019-04-20T00:31:18.032Z,4.07
2019-04-20T00:33:39.761Z,4.17
2019-04-20T00:35:57.002Z,4.17
2019-04-20T00:38:33.547Z,4.75
2019-04-20T00:41:02.738Z,4.67
2019-04-20T00:43:32.815Z,4.33
2019-04-20T00:46:08.219Z,3.93
2019-04-20T00:48:44.301Z,4.72
2019-04-20T00:51:24.992Z,4.47
2019-04-20T00:53:39.621Z,4.67
2019-04-20T00:56:05.906Z,4.73
2019-04-20T00:58:50.773Z,5.83
2019-04-20T01:01:26.400Z,5.37
2019-04-20T01:03:50.798Z,4.78
2019-04-20T01:06:36.582Z,5.30
2019-04-20T01:08:59.222Z,4.85
2019-04-20T01:11:33.949Z,4.53
2019-04-20T01:14:04.648Z,5.33
2019-04-20T01:16:40.804Z,4.90
2019-04-20T01:19:02.992Z,5.33
2019-04-20T01:21:34.801Z,4.65
2019-04-20T01:24:07.939Z,5.70
2019-04-20T01:26:41.905Z,5.87
2019-04-20T01:29:16.962Z,5.08
2019-04-20T01:31:52.954Z,5.20
2019-04-20T01:34:26.596Z,5.65
2019-04-20T01:36:55.671Z,4.90
2019-04-20T01:39:20.577Z,5.10
2019-04-20T01:41:43.492Z,5.10
2019-04-20T01:44:13.517Z,6.37
2019-04-20T01:46:48.782Z,5.72
2019-04-20T01:49:20.485Z,5.67
2019-04-20T01:51:57.697Z,6.08
2019-04-20T01:54:32.622Z,5.65
2019-04-20T01:56:59.717Z,5.87
2019-04-20T01:59:34.812Z,5.47
2019-04-20T02:02:05.197Z,6.50
2019-04-20T02:04:36.016Z,5.67
2019-04-20T02:07:06.384Z,5.47
2019-04-20T02:09:43.299Z,5.83
2019-04-20T02:12:12.112Z,5.57
2019-04-20T02:14:43.748Z,6.70
2019-04-20T02:17:19.825Z,5.97
2019-04-20T02:19:59.825Z,6.30
2019-04-20T02:22:30.315Z,6.37
2019-04-20T02:24:42.764Z,5.75
2019-04-20T02:27:12.657Z,6.45
2019-04-20T02:30:07.553Z,5.47
2019-04-20T02:32:47.673Z,6.08
2019-04-20T02:35:50.423Z,5.45
2019-04-20T02:38:15.003Z,6.60
2019-04-20T02:40:46.498Z,6.35
2019-04-20T02:45:47.143Z,6.00
2019-04-20T02:50:44.205Z,6.83
2019-04-20T02:55:48.439Z,5.47
2019-04-20T02:58:15.334Z,6.37
2019-04-20T03:00:42.678Z,6.33
2019-04-20T03:03:04.564Z,6.70
2019-04-20T03:05:33.146Z,6.77
2019-04-20T03:08:08.736Z,6.77
2019-04-20T03:10:58.570Z,6.77
2019-04-20T03:13:18.523Z,6.97
2019-04-20T03:15:48.141Z,6.30
2019-04-20T03:18:22.330Z,7.20
2019-04-20T03:20:53.649Z,6.67
2019-04-20T03:26:00.731Z,7.33
2019-04-20T03:28:42.932Z,7.33
2019-04-20T03:31:56.228Z,7.28
2019-04-20T03:34:47.428Z,7.20
2019-04-20T03:36:48.023Z,7.55
2019-04-20T03:39:09.262Z,8.05
2019-04-20T03:41:29.080Z,7.97
2019-04-20T03:43:58.467Z,8.53
2019-04-20T03:46:31.099Z,8.90
2019-04-20T03:49:14.579Z,7.93
2019-04-20T03:51:47.117Z,8.37
2019-04-20T03:54:17.010Z,8.13
2019-04-20T03:57:17.031Z,8.68
2019-04-20T03:59:44.622Z,8.63
2019-04-20T04:04:58.977Z,9.90
2019-04-20T04:07:25.202Z,8.58
2019-04-20T04:10:01.883Z,8.87
2019-04-20T04:12:53.155Z,8.53
2019-04-20T04:15:25.385Z,8.25
2019-04-20T04:17:57.978Z,8.87
2019-04-20T04:20:33.222Z,8.73
2019-04-20T04:23:17.843Z,8.50
2019-04-20T04:25:39.816Z,9.00
2019-04-20T04:28:14.218Z,8.53
2019-04-20T04:30:49.532Z,9.25
2019-04-20T04:35:51.543Z,7.80
2019-04-20T04:38:27.477Z,8.47
2019-04-20T04:41:06.439Z,8.28
2019-04-20T04:43:25.813Z,9.47
2019-04-20T04:45:38.926Z,9.65
2019-04-20T04:48:14.724Z,8.23
2019-04-20T04:50:48.330Z,9.00
2019-04-20T04:53:25.061Z,9.20
2019-04-20T04:55:50.564Z,9.18
2019-04-20T04:58:14.783Z,9.07
2019-04-20T05:00:44.769Z,9.00
2019-04-20T05:03:33.660Z,9.78
2019-04-20T05:06:06.552Z,9.00
2019-04-20T05:08:30.413Z,8.48
2019-04-20T05:10:54.173Z,8.85
2019-04-20T05:13:28.810Z,9.30
2019-04-20T05:16:10.571Z,8.48
2019-04-20T05:18:50.034Z,8.57
2019-04-20T05:21:21.921Z,8.83
2019-04-20T05:23:44.425Z,8.25
2019-04-20T05:26:36.109Z,8.88
2019-04-20T05:28:57.704Z,9.03
2019-04-20T05:31:18.599Z,7.12
2019-04-20T05:34:15.966Z,8.33
2019-04-20T05:36:41.677Z,8.10
2019-04-20T05:41:44.074Z,7.27
2019-04-20T05:44:08.712Z,7.50
2019-04-20T05:46:45.945Z,7.50
2019-04-20T05:49:22.135Z,7.33
2019-04-20T05:51:48.687Z,7.67
2019-04-20T05:54:19.222Z,7.27
2019-04-20T05:56:54.600Z,8.10
2019-04-20T05:59:23.365Z,8.37
2019-04-20T06:02:02.180Z,8.20
2019-04-20T06:04:39.828Z,7.67
2019-04-20T06:07:04.021Z,7.93
2019-04-20T06:09:33.497Z,7.47
2019-04-20T06:14:25.707Z,7.20
2019-04-20T06:17:16.037Z,7.12
2019-04-20T06:19:39.218Z,7.20
2019-04-20T06:22:29.753Z,7.30
2019-04-20T06:25:31.557Z,7.60
2019-04-20T06:30:11.172Z,6.28
2019-04-20T06:33:34.387Z,7.12
2019-04-20T06:36:09.257Z,6.78
2019-04-20T06:38:42.234Z,6.67
2019-04-20T06:41:10.577Z,7.80
2019-04-20T06:43:34.815Z,7.33
2019-04-20T06:46:07.111Z,6.87
2019-04-20T06:48:37.176Z,7.40
2019-04-20T06:50:57.046Z,6.73
2019-04-20T06:53:45.338Z,7.15
2019-04-20T06:56:17.437Z,6.65
2019-04-20T06:58:58.881Z,6.65
2019-04-20T07:01:11.427Z,7.20
2019-04-20T07:04:10.811Z,6.50
2019-04-20T07:06:30.780Z,6.70
2019-04-20T07:08:56.829Z,6.50
2019-04-20T07:11:18.748Z,6.30
2019-04-20T07:13:39.247Z,6.13
2019-04-20T07:16:21.328Z,5.60
2019-04-20T07:19:11.623Z,6.42
2019-04-20T07:22:12.334Z,5.75
2019-04-20T07:24:30.886Z,5.85
2019-04-20T07:27:03.096Z,6.03
2019-04-20T07:29:37.088Z,5.67
2019-04-20T07:31:58.842Z,6.43
2019-04-20T07:34:36.234Z,6.10
2019-04-20T07:37:26.646Z,5.70
2019-04-20T07:39:40.701Z,6.45
2019-04-20T07:42:16.753Z,6.22
2019-04-20T07:44:48.853Z,6.62
2019-04-20T07:47:22.075Z,6.30
2019-04-20T07:49:41.394Z,6.20
2019-04-20T07:51:57.516Z,6.60
2019-04-20T07:55:03.509Z,7.20
2019-04-20T07:57:19.584Z,6.70
2019-04-20T07:59:52.839Z,7.47
2019-04-20T08:02:38.164Z,7.03
2019-04-20T08:05:00.399Z,7.15
2019-04-20T08:07:18.806Z,6.62
2019-04-20T08:09:53.229Z,6.83
2019-04-20T08:12:51.620Z,7.47
2019-04-20T08:15:32.228Z,6.55
2019-04-20T08:17:53.966Z,7.30
2019-04-20T08:20:22.108Z,7.00
2019-04-20T08:22:55.299Z,7.30
2019-04-20T08:25:16.721Z,7.93
2019-04-20T08:27:53.019Z,7.97
2019-04-20T08:30:57.099Z,6.92
2019-04-20T08:33:36.709Z,7.15
2019-04-20T08:36:14.240Z,7.78
2019-04-20T08:41:09.915Z,6.90
2019-04-20T08:43:58.960Z,6.72
2019-04-20T08:46:18.191Z,7.07
2019-04-20T08:48:46.948Z,6.53
2019-04-20T08:51:19.404Z,6.80
2019-04-20T08:53:51.746Z,6.83
2019-04-20T08:56:14.276Z,6.37
2019-04-20T08:58:34.029Z,7.20
2019-04-20T09:01:08.343Z,7.20
2019-04-20T09:03:46.322Z,6.33
2019-04-20T09:06:23.841Z,7.03
2019-04-20T09:08:50.766Z,7.67
2019-04-20T09:11:25.007Z,7.63
2019-04-20T09:13:47.689Z,7.87
2019-04-20T09:16:13.162Z,8.60
2019-04-20T09:18:54.813Z,8.08
2019-04-20T09:21:24.368Z,7.97
2019-04-20T09:24:16.131Z,9.13
2019-04-20T09:26:43.351Z,7.22
2019-04-20T09:29:05.397Z,7.53
2019-04-20T09:31:39.520Z,7.13
2019-04-20T09:34:16.302Z,6.55
2019-04-20T09:36:46.075Z,7.20
2019-04-20T09:39:21.385Z,7.25
2019-04-20T09:42:02.613Z,7.22
2019-04-20T09:44:39.859Z,8.18
2019-04-20T09:47:06.481Z,8.00
2019-04-20T09:49:47.228Z,8.40
2019-04-20T09:52:18.572Z,7.90
2019-04-20T09:54:55.235Z,7.20
2019-04-20T09:57:32.170Z,7.77
2019-04-20T09:59:59.877Z,8.30
2019-04-20T10:02:18.773Z,7.40
2019-04-20T10:04:43.883Z,6.30
2019-04-20T10:07:17.961Z,6.30
2019-04-20T10:09:46.660Z,6.10
2019-04-20T10:12:17.513Z,6.17
2019-04-20T10:14:47.319Z,6.92
2019-04-20T10:17:18.146Z,6.67
2019-04-20T10:19:49.618Z,7.42
2019-04-20T10:22:20.443Z,6.23
2019-04-20T10:24:52.624Z,7.10
2019-04-20T10:27:22.447Z,6.83
2019-04-20T10:29:53.465Z,7.17
2019-04-20T10:32:29.955Z,7.72
2019-04-20T10:34:54.900Z,7.40
2019-04-20T10:37:27.260Z,6.83
2019-04-20T10:39:58.415Z,7.08
2019-04-20T10:42:28.390Z,7.40
2019-04-20T10:45:00.322Z,7.67
2019-04-20T10:47:29.450Z,6.83
2019-04-20T10:49:59.157Z,7.20
2019-04-20T10:52:29.881Z,6.55
2019-04-20T10:55:00.639Z,6.85
2019-04-20T11:00:01.760Z,6.35
2019-04-20T11:02:35.176Z,6.10
2019-04-20T11:05:06.545Z,6.43
2019-04-20T11:07:36.728Z,7.80
2019-04-20T11:10:16.711Z,6.50
2019-04-20T11:12:40.101Z,6.22
2019-04-20T11:15:10.370Z,6.45
2019-04-20T11:17:43.683Z,6.37
2019-04-20T11:20:13.291Z,6.35
2019-04-20T11:22:44.251Z,6.72
2019-04-20T11:25:14.450Z,6.40
2019-04-20T11:27:44.343Z,5.80
2019-04-20T11:30:14.142Z,5.08
2019-04-20T11:32:44.341Z,5.20
2019-04-20T11:35:22.855Z,5.40
2019-04-20T11:37:45.462Z,4.80
2019-04-20T11:40:15.176Z,4.92
2019-04-20T11:42:45.644Z,6.05
2019-04-20T11:45:16.436Z,5.67
2019-04-20T11:47:47.291Z,5.30
2019-04-20T11:50:17.852Z,4.77
2019-04-20T11:52:49.428Z,5.15
2019-04-20T11:55:19.955Z,5.72
2019-04-20T11:57:51.255Z,5.47
2019-04-20T12:00:27.674Z,4.90
2019-04-20T12:03:15.872Z,4.83
2019-04-20T12:08:11.196Z,4.87
2019-04-20T12:10:43.637Z,4.77
2019-04-20T12:13:14.570Z,4.12
2019-04-20T12:15:43.780Z,3.85
2019-04-20T12:18:13.797Z,3.55
2019-04-20T12:20:44.882Z,3.70
2019-04-20T12:23:16.029Z,3.90
2019-04-20T12:25:48.058Z,4.08
2019-04-20T12:28:17.968Z,4.92
2019-04-20T12:30:49.483Z,4.12
2019-04-20T12:33:19.194Z,4.10
2019-04-20T12:35:50.003Z,3.77
2019-04-20T12:38:21.005Z,5.00
2019-04-20T12:40:52.373Z,4.63
2019-04-20T12:43:23.527Z,4.20
2019-04-20T12:45:55.741Z,4.92
2019-04-20T12:48:27.599Z,4.75
2019-04-20T12:50:57.469Z,5.40
2019-04-20T12:53:28.544Z,5.15
2019-04-20T12:55:58.804Z,5.28
2019-04-20T12:58:28.583Z,5.17
2019-04-20T13:00:58.394Z,5.00
2019-04-20T13:03:28.110Z,5.92
2019-04-20T13:05:58.162Z,5.95
2019-04-20T13:08:33.961Z,5.67
2019-04-20T13:11:02.438Z,6.28
2019-04-20T13:13:34.563Z,6.47
2019-04-20T13:16:08.202Z,5.30
2019-04-20T13:18:45.441Z,5.47
2019-04-20T13:21:13.896Z,6.40
2019-04-20T13:23:44.913Z,5.55
2019-04-20T13:26:15.640Z,6.28
2019-04-20T13:28:46.790Z,6.08
2019-04-20T13:31:17.800Z,5.57
2019-04-20T13:33:47.714Z,5.77
2019-04-20T13:36:17.306Z,5.15
2019-04-20T13:38:48.007Z,5.58
2019-04-20T13:41:17.921Z,4.83
2019-04-20T13:43:48.068Z,5.58
2019-04-20T13:46:18.822Z,5.67
2019-04-20T13:48:48.951Z,5.30
2019-04-20T13:51:18.959Z,5.50
2019-04-20T13:53:48.858Z,5.62
2019-04-20T13:56:19.732Z,5.05
2019-04-20T13:58:56.171Z,5.22
2019-04-20T14:01:30.693Z,5.00
2019-04-20T14:04:03.092Z,5.00
2019-04-20T14:09:05.535Z,5.28
2019-04-20T14:11:36.155Z,4.55
2019-04-20T14:14:08.137Z,4.85
2019-04-20T14:16:37.245Z,4.78
2019-04-20T14:19:07.200Z,5.05
2019-04-20T14:21:38.465Z,5.47
2019-04-20T14:24:10.962Z,5.30
2019-04-20T14:26:41.224Z,5.17
2019-04-20T14:29:10.913Z,5.20
2019-04-20T14:31:41.795Z,5.22
2019-04-20T14:34:12.915Z,5.47
2019-04-20T14:36:42.807Z,5.15
2019-04-20T14:39:12.517Z,5.15
2019-04-20T14:41:42.333Z,4.62
2019-04-20T14:44:12.235Z,4.08
2019-04-20T14:46:42.029Z,4.70
2019-04-20T14:49:12.597Z,4.67
2019-04-20T14:51:43.424Z,4.42
2019-04-20T14:56:45.307Z,4.30
2019-04-20T15:01:50.390Z,3.95
2019-04-20T15:04:22.987Z,3.60
2019-04-20T15:06:52.614Z,4.33
2019-04-20T15:09:24.701Z,4.40
2019-04-20T15:11:54.919Z,4.00
2019-04-20T15:14:24.890Z,3.87
2019-04-20T15:16:54.647Z,4.05
2019-04-20T15:19:25.900Z,4.05
2019-04-20T15:21:59.901Z,3.37
2019-04-20T15:24:29.602Z,4.28
2019-04-20T15:27:00.493Z,4.35
2019-04-20T15:29:30.518Z,3.95
2019-04-20T15:32:00.390Z,4.15
2019-04-20T15:34:30.912Z,4.45
2019-04-20T15:37:02.345Z,3.92
2019-04-20T15:39:33.327Z,3.72
2019-04-20T15:42:03.354Z,4.10
2019-04-20T15:44:33.515Z,4.30
2019-04-20T15:47:03.645Z,3.80
2019-04-20T15:49:33.850Z,3.50
2019-04-20T15:52:03.912Z,3.80
2019-04-20T15:54:33.993Z,3.85
2019-04-20T15:57:12.327Z,4.03
2019-04-20T15:59:36.111Z,4.22
2019-04-20T16:02:11.367Z,4.75
2019-04-20T16:04:50.543Z,4.00
2019-04-20T16:07:21.562Z,3.98
2019-04-20T16:09:51.668Z,4.10
2019-04-20T16:12:22.750Z,3.77
2019-04-20T16:14:53.612Z,3.35
2019-04-20T16:17:31.024Z,3.45
2019-04-20T16:20:03.853Z,3.52
2019-04-20T16:22:28.891Z,4.37
2019-04-20T16:25:15.578Z,4.30
2019-04-20T16:27:45.603Z,4.22
2019-04-20T16:30:15.779Z,4.28
2019-04-20T16:32:45.552Z,3.72
2019-04-20T16:35:16.293Z,4.10
2019-04-20T16:37:46.501Z,3.67
2019-04-20T16:40:29.424Z,4.03
2019-04-20T16:43:00.399Z,4.03
2019-04-20T16:45:30.254Z,4.10
2019-04-20T16:48:01.670Z,4.50
2019-04-20T16:50:31.212Z,4.30
2019-04-20T16:53:01.122Z,4.20
2019-04-20T16:55:30.865Z,3.92
2019-04-20T16:58:01.651Z,4.40
2019-04-20T17:00:31.682Z,5.22
2019-04-20T17:03:02.604Z,4.00
2019-04-20T17:05:33.310Z,3.42
2019-04-20T17:08:03.083Z,3.35
2019-04-20T17:10:32.817Z,3.52
2019-04-20T17:13:03.967Z,3.70
2019-04-20T17:15:33.885Z,3.67
2019-04-20T17:18:03.785Z,3.75
2019-04-20T17:20:34.598Z,3.27
2019-04-20T17:23:06.955Z,4.20
2019-04-20T17:25:37.692Z,3.55
2019-04-20T17:28:17.907Z,3.40
2019-04-20T17:30:56.762Z,3.58
2019-04-20T17:33:31.026Z,3.12
2019-04-20T17:36:08.851Z,3.08
2019-04-20T17:38:37.618Z,2.95
2019-04-20T17:41:22.453Z,2.80
2019-04-20T17:43:56.745Z,3.40
2019-04-20T17:46:17.551Z,2.60
2019-04-20T17:48:55.647Z,3.27
2019-04-20T17:51:28.705Z,2.70
2019-04-20T17:53:49.055Z,3.30
2019-04-20T17:56:12.958Z,2.40
2019-04-20T17:58:43.802Z,3.17
2019-04-20T18:01:32.912Z,2.75
2019-04-20T18:04:25.255Z,2.90
2019-04-20T18:06:43.694Z,3.00
2019-04-20T18:09:11.138Z,3.00
2019-04-20T18:11:37.330Z,2.70
2019-04-20T18:14:15.946Z,3.23
2019-04-20T18:16:52.382Z,3.23
2019-04-20T18:19:13.290Z,2.87
2019-04-20T18:21:40.681Z,2.80
2019-04-20T18:24:14.415Z,2.80
2019-04-20T18:26:59.328Z,3.00
2019-04-20T18:29:32.612Z,2.80
2019-04-20T18:31:53.333Z,3.00
2019-04-20T18:34:44.951Z,2.45
2019-04-20T18:37:19.635Z,2.70
2019-04-20T18:39:53.424Z,3.00
2019-04-20T18:42:26.317Z,2.90
2019-04-20T18:45:09.100Z,2.70
2019-04-20T18:47:44.201Z,3.03
2019-04-20T18:50:04.441Z,2.80
2019-04-20T18:52:24.237Z,2.83
2019-04-20T18:54:55.493Z,3.05
2019-04-20T18:57:29.184Z,3.33
2019-04-20T18:59:58.671Z,3.25
2019-04-20T19:02:34.786Z,3.20
2019-04-20T19:05:01.549Z,5.40
2019-04-20T19:07:39.653Z,6.67
2019-04-20T19:10:11.210Z,6.60
2019-04-20T19:12:44.282Z,4.97
2019-04-20T19:15:46.894Z,3.75
2019-04-20T19:18:12.887Z,3.75
2019-04-20T19:20:37.397Z,3.55
2019-04-20T19:23:10.238Z,3.85
2019-04-20T19:25:40.951Z,3.77
2019-04-20T19:28:10.503Z,3.73
2019-04-20T19:30:50.233Z,3.60
2019-04-20T19:33:30.050Z,4.10
2019-04-20T19:35:53.041Z,3.83
2019-04-20T19:38:22.629Z,3.23
2019-04-20T19:40:56.485Z,3.75
2019-04-20T19:43:26.673Z,4.13
2019-04-20T19:46:33.208Z,3.80
2019-04-20T19:48:32.278Z,3.80
2019-04-20T19:51:19.432Z,4.00
2019-04-20T19:53:45.166Z,3.53
2019-04-20T19:56:06.336Z,3.80
2019-04-20T19:58:37.910Z,3.27
2019-04-20T20:00:59.587Z,3.70
2019-04-20T20:03:29.976Z,3.50
2019-04-20T20:06:01.390Z,3.22
2019-04-20T20:08:34.844Z,3.37
2019-04-20T20:11:04.850Z,3.57
2019-04-20T20:13:41.982Z,3.33
2019-04-20T20:16:10.488Z,3.60
2019-04-20T20:18:51.150Z,3.40
2019-04-20T20:21:22.692Z,3.57
2019-04-20T20:23:39.471Z,3.33
2019-04-20T20:26:18.867Z,3.40
2019-04-20T20:28:48.588Z,3.17
2019-04-20T20:31:23.323Z,3.37
2019-04-20T20:33:58.074Z,3.13
2019-04-20T20:36:19.275Z,2.80
2019-04-20T20:38:50.673Z,3.50
2019-04-20T20:41:23.640Z,4.10
2019-04-20T20:44:01.075Z,4.30
2019-04-20T20:46:30.673Z,4.13
2019-04-20T20:49:29.961Z,4.33
2019-04-20T20:51:42.691Z,3.87
2019-04-20T20:54:02.198Z,3.60
2019-04-20T20:56:30.923Z,4.67
2019-04-20T20:59:06.735Z,4.10
2019-04-20T21:01:39.536Z,4.30
2019-04-20T21:04:00.475Z,4.45
2019-04-20T21:06:32.848Z,5.33
2019-04-20T21:09:02.055Z,5.80
2019-04-20T21:11:36.210Z,5.67
2019-04-20T21:14:06.711Z,5.42
2019-04-20T21:16:41.075Z,5.25
2019-04-20T21:19:21.511Z,5.45
2019-04-20T21:21:49.576Z,5.87
2019-04-20T21:24:17.664Z,5.30
2019-04-20T21:26:45.917Z,5.67
2019-04-20T21:29:21.340Z,5.60
2019-04-20T21:31:55.558Z,5.77
2019-04-20T21:34:20.243Z,5.50
2019-04-20T21:36:50.615Z,5.10
2019-04-20T21:39:32.438Z,5.20
2019-04-20T21:41:59.693Z,4.97
2019-04-20T21:44:28.477Z,4.97
2019-04-20T21:46:55.989Z,5.97
2019-04-20T21:49:39.931Z,5.70
2019-04-20T21:52:01.688Z,5.40
2019-04-20T21:54:30.149Z,5.53
2019-04-20T21:57:03.826Z,6.00
2019-04-20T21:59:38.682Z,6.75
2019-04-20T22:02:10.625Z,7.57
2019-04-20T22:04:33.896Z,6.80
2019-04-20T22:07:04.635Z,7.08
2019-04-20T22:09:41.305Z,7.03
2019-04-20T22:12:05.854Z,7.10
2019-04-20T22:14:37.663Z,7.30
2019-04-20T22:17:09.792Z,7.17
2019-04-20T22:19:47.294Z,6.47
2019-04-20T22:22:18.569Z,6.10
2019-04-20T22:24:56.414Z,6.67
2019-04-20T22:27:19.469Z,6.13
2019-04-20T22:29:44.050Z,5.50
2019-04-20T22:32:17.291Z,5.33
2019-04-20T22:34:54.163Z,5.47
2019-04-20T22:37:22.056Z,5.27
2019-04-20T22:39:54.447Z,6.20
2019-04-20T22:42:22.271Z,6.28
2019-04-20T22:45:01.251Z,5.67
2019-04-20T22:47:28.753Z,5.77
2019-04-20T22:50:15.190Z,5.50
2019-04-20T22:52:42.813Z,6.03
2019-04-20T22:55:20.123Z,6.33
2019-04-20T22:57:42.143Z,5.20
2019-04-20T23:00:08.344Z,6.70
2019-04-20T23:02:33.714Z,5.97
2019-04-20T23:05:04.777Z,6.45
2019-04-20T23:07:34.744Z,6.92
2019-04-20T23:10:08.218Z,5.87
2019-04-20T23:12:40.230Z,6.30
2019-04-20T23:15:10.229Z,5.85
2019-04-20T23:17:45.004Z,5.87
2019-04-20T23:20:17.280Z,5.90
2019-04-20T23:22:46.201Z,7.23
2019-04-20T23:25:15.309Z,6.27
2019-04-20T23:27:45.774Z,6.00
2019-04-20T23:30:23.640Z,5.28
2019-04-20T23:32:46.814Z,5.50
2019-04-20T23:35:19.637Z,5.47
2019-04-20T23:37:48.501Z,5.25
2019-04-20T23:40:19.587Z,5.30
2019-04-20T23:42:57.972Z,5.08
2019-04-20T23:45:39.424Z,5.47
2019-04-20T23:48:23.673Z,4.15
2019-04-20T23:51:08.435Z,4.87
2019-04-20T23:53:42.674Z,4.13
2019-04-20T23:55:57.624Z,4.80
2019-04-20T23:58:30.926Z,4.65
